Pelagos — SZSW — position and weather

sailwx.info

Track history (hours):
 
Tides and Currents Weather Stations Pressure Air Temp Water Temp Dewpoint Dewpoint Depression Visibility Wind Speed Wind Dir Waves Ship Positions

Pelagos

Last reported at 2015-Jan-21 05:27 UTC. Time now 2015-Jan-27 21:02 UTC.
Position N 54°49' E 010°50'.

Length 249 m; draft 14.1 m.

Type: Ship (hazmat cat C). MMSI: 240335000.

Date/timePositionNaut miles runAvg speedWind from/ knotsBaromVisibWave heightAir tempDewpointWater temp
2015-Jan-21 05:27N 54°49' E 010°50'1310.8
2015-Jan-21 04:14N 54°37' E 010°58'913.5
2015-Jan-21 03:33N 54°35' E 011°14'1313.3
2015-Jan-21 02:33N 54°29' E 011°34'1312.9
2015-Jan-21 01:33N 54°26' E 011°56'1110.6
2015-Jan-21 00:33N 54°30' E 012°13'10 9.6
2015-Jan-20 23:33N 54°38' E 012°21'9 8.8
2015-Jan-20 22:33N 54°43' E 012°34'9 9.0
2015-Jan-20 21:33N 54°47' E 012°47'1010.0
2015-Jan-20 20:34N 54°51' E 013°03'1010.3
2015-Jan-20 19:33N 54°55' E 013°20'1010.2
2015-Jan-20 18:33N 54°58' E 013°36'1111.0
2015-Jan-20 17:33N 55°02' E 013°55'1110.8
2015-Jan-20 16:34N 55°08' E 014°10'1212.1
2015-Jan-20 15:33N 55°18' E 014°23'1211.7
2015-Jan-20 14:33N 55°26' E 014°37'1111.2
2015-Jan-20 13:34N 55°31' E 014°55'1111.4
2015-Jan-20 12:34N 55°37' E 015°12'1111.0
2015-Jan-20 11:32N 55°40' E 015°32'  
2015-Jan-15 15:22N 60°09' E 027°40'1310.0
2015-Jan-15 14:05N 60°02' E 027°18'510.1
2015-Jan-15 13:33N 59°60' E 027°09'9 9.1
2015-Jan-15 12:33N 59°59' E 026°51'9 9.4
2015-Jan-15 11:34N 59°59' E 026°32'6010.0
2015-Jan-15 05:34N 59°45' E 024°36'1010.3
2015-Jan-15 04:33N 59°43' E 024°16'1010.2
2015-Jan-15 03:33N 59°39' E 023°57'1010.2
2015-Jan-15 02:33N 59°36' E 023°38'1010.1
2015-Jan-15 01:33N 59°33' E 023°19'341 9.0
2015-Jan-13 11:33N 55°38' E 015°37'10 9.9
2015-Jan-13 10:32N 55°34' E 015°20'9 9.4
2015-Jan-13 09:33N 55°31' E 015°05'10 9.8
2015-Jan-13 08:33N 55°27' E 014°49'9 9.4
2015-Jan-13 07:33N 55°21' E 014°36'1010.2
2015-Jan-13 06:33N 55°13' E 014°25'1010.3
2015-Jan-13 05:33N 55°10' E 014°08'1111.4
2015-Jan-13 04:34N 55°10' E 013°48'1211.4
2015-Jan-13 03:33N 55°12' E 013°28'1111.2
2015-Jan-13 02:33N 55°13' E 013°08'1110.6
2015-Jan-13 01:33N 55°15' E 012°50'9 8.7
2015-Jan-13 00:33N 55°21' E 012°38'10 9.9
2015-Jan-12 23:33N 55°30' E 012°44'9 9.2
2015-Jan-12 22:33N 55°37' E 012°54'1212.4
2015-Jan-12 21:34N 55°49' E 012°47'1514.5
2015-Jan-12 20:34N 56°03' E 012°39'9 8.9
2015-Jan-12 19:33N 56°09' E 012°27'9 9.4
2015-Jan-12 18:33N 56°14' E 012°13'1110.9
2015-Jan-12 17:33N 56°23' E 012°01'1212.0
2015-Jan-12 16:33N 56°34' E 011°56'1212.3
2015-Jan-12 15:33N 56°47' E 011°51'1312.7
2015-Jan-12 14:33N 56°58' E 011°43'1312.4
2015-Jan-12 13:29N 57°11' E 011°35'1212.3
2015-Jan-12 12:33N 57°22' E 011°28'1212.1
2015-Jan-12 11:33N 57°32' E 011°15'1312.5
2015-Jan-12 10:33N 57°40' E 010°58'1312.8
2015-Jan-12 09:33N 57°48' E 010°39'  
Track history (hours):
 
Tides and Currents Weather Stations Pressure Air Temp Water Temp Dewpoint Dewpoint Depression Visibility Wind Speed Wind Dir Waves Ship Positions

Pelagos

Last reported at 2015-Jan-21 05:27 UTC. Time now 2015-Jan-27 21:02 UTC.
Position N 54°49' E 010°50'.

Length 249 m; draft 14.1 m.

Type: Ship (hazmat cat C). MMSI: 240335000.

Date/timePositionNaut miles runAvg speedWind from/ knotsBaromVisibWave heightAir tempDewpointWater temp
2015-Jan-21 05:27N 54°49' E 010°50'1310.8
2015-Jan-21 04:14N 54°37' E 010°58'913.5
2015-Jan-21 03:33N 54°35' E 011°14'1313.3
2015-Jan-21 02:33N 54°29' E 011°34'1312.9
2015-Jan-21 01:33N 54°26' E 011°56'1110.6
2015-Jan-21 00:33N 54°30' E 012°13'10 9.6
2015-Jan-20 23:33N 54°38' E 012°21'9 8.8
2015-Jan-20 22:33N 54°43' E 012°34'9 9.0
2015-Jan-20 21:33N 54°47' E 012°47'1010.0
2015-Jan-20 20:34N 54°51' E 013°03'1010.3
2015-Jan-20 19:33N 54°55' E 013°20'1010.2
2015-Jan-20 18:33N 54°58' E 013°36'1111.0
2015-Jan-20 17:33N 55°02' E 013°55'1110.8
2015-Jan-20 16:34N 55°08' E 014°10'1212.1
2015-Jan-20 15:33N 55°18' E 014°23'1211.7
2015-Jan-20 14:33N 55°26' E 014°37'1111.2
2015-Jan-20 13:34N 55°31' E 014°55'1111.4
2015-Jan-20 12:34N 55°37' E 015°12'1111.0
2015-Jan-20 11:32N 55°40' E 015°32'  
2015-Jan-15 15:22N 60°09' E 027°40'1310.0
2015-Jan-15 14:05N 60°02' E 027°18'510.1
2015-Jan-15 13:33N 59°60' E 027°09'9 9.1
2015-Jan-15 12:33N 59°59' E 026°51'9 9.4
2015-Jan-15 11:34N 59°59' E 026°32'6010.0
2015-Jan-15 05:34N 59°45' E 024°36'1010.3
2015-Jan-15 04:33N 59°43' E 024°16'1010.2
2015-Jan-15 03:33N 59°39' E 023°57'1010.2
2015-Jan-15 02:33N 59°36' E 023°38'1010.1
2015-Jan-15 01:33N 59°33' E 023°19'341 9.0
2015-Jan-13 11:33N 55°38' E 015°37'10 9.9
2015-Jan-13 10:32N 55°34' E 015°20'9 9.4
2015-Jan-13 09:33N 55°31' E 015°05'10 9.8
2015-Jan-13 08:33N 55°27' E 014°49'9 9.4
2015-Jan-13 07:33N 55°21' E 014°36'1010.2
2015-Jan-13 06:33N 55°13' E 014°25'1010.3
2015-Jan-13 05:33N 55°10' E 014°08'1111.4
2015-Jan-13 04:34N 55°10' E 013°48'1211.4
2015-Jan-13 03:33N 55°12' E 013°28'1111.2
2015-Jan-13 02:33N 55°13' E 013°08'1110.6
2015-Jan-13 01:33N 55°15' E 012°50'9 8.7
2015-Jan-13 00:33N 55°21' E 012°38'10 9.9
2015-Jan-12 23:33N 55°30' E 012°44'9 9.2
2015-Jan-12 22:33N 55°37' E 012°54'1212.4
2015-Jan-12 21:34N 55°49' E 012°47'1514.5
2015-Jan-12 20:34N 56°03' E 012°39'9 8.9
2015-Jan-12 19:33N 56°09' E 012°27'9 9.4
2015-Jan-12 18:33N 56°14' E 012°13'1110.9
2015-Jan-12 17:33N 56°23' E 012°01'1212.0
2015-Jan-12 16:33N 56°34' E 011°56'1212.3
2015-Jan-12 15:33N 56°47' E 011°51'1312.7
2015-Jan-12 14:33N 56°58' E 011°43'1312.4
2015-Jan-12 13:29N 57°11' E 011°35'1212.3
2015-Jan-12 12:33N 57°22' E 011°28'1212.1
2015-Jan-12 11:33N 57°32' E 011°15'1312.5
2015-Jan-12 10:33N 57°40' E 010°58'1312.8
2015-Jan-12 09:33N 57°48' E 010°39'  

Dump ship's entire track history